KCHK/CHK METAR and TAF weather

Enter ICAO airport designator
Station Type Date Time Source
KCHK METAR 2020/11/28 20:15 UTC NOAA

KCHK 282015Z AUTO 02013KT 10SM OVC100 08/02 A3012 RMK AO2 T00780020


Station Type Date Time Source
KCHK Decoded METAR 2020/11/28 20:15 UTC NOAA

Chickasha, Chickasha Municipal Airport, OK, United States (KCHK) 35-05-46N 097-57-58W
Nov 28, 2020 - 03:15 PM EST / 2020.11.28 2015 UTC
Wind: from the NNE (020 degrees) at 15 MPH (13 KT):0
Visibility: 10 mile(s):0
Sky conditions: overcast
Temperature: 46.0 F (7.8 C)
Dew Point: 35.6 F (2.0 C)
Relative Humidity: 66%
Pressure (altimeter): 30.12 in. Hg (1019 hPa)
ob: KCHK 282015Z AUTO 02013KT 10SM OVC100 08/02 A3012 RMK AO2 T00780020
cycle: 20

Station Type Date Time Source
KCHK TAF UTC NOAA

Error!

Example: see airport list